Meteo Giornale » Osservazioni meteo Bulgaria » Plovdiv
ore: 19:00 - Osservazioni Meteo Plovdiv
Lat. 42° 8' N Lon. 24° 45' E Alt. 179 metri s.l.m.
33 °C
Poco Nuvoloso
Temp. 24 Ore
17 °C
34 °C
Est
18.5 Km/h
Dew point 12 °C
Umidità 27 %
Visibilità 10 Km
Il sole sorge alle ore 06:45
Il sole tramonta alle ore 19:57
| Data e Ora | Cielo e Fenomeni | T °C | DP °C | Um. % | Pres. hPa | Vis. km | Vento km/h | |
|---|---|---|---|---|---|---|---|---|
| Oggi h: 19:00 | Poco Nuvoloso | 33 | 12 | 27 | 1014 | 10 | E 18.5 | |
| Oggi h: 18:30 | Poco Nuvoloso | 33 | 11 | 26 | 1014 | 10 | E 14.8 | |
| Oggi h: 18:00 | Sereno | 34 | 11 | 24 | 1014 | 10 | E/NE 13 | |
| Oggi h: 17:30 | Poco Nuvoloso | 34 | 12 | 26 | 1014 | 10 | SE 11.1 | |
| Oggi h: 17:00 | Poco Nuvoloso | 34 | 12 | 26 | 1014 | 10 | E/NE 9.3 | |
| Oggi h: 16:30 | Poco Nuvoloso | 33 | 11 | 26 | 1015 | 10 | E 11.1 | |
| Oggi h: 16:00 | Sereno | 34 | 12 | 26 | 1015 | 10 | N 7.4 | |
| Oggi h: 15:30 | Poco Nuvoloso | 33 | 12 | 27 | 1015 | 10 | N 7.4 | |
| Oggi h: 15:00 | Sereno | 32 | 12 | 29 | 1015 | 10 | E 9.3 | |
| Oggi h: 14:30 | Poco Nuvoloso | 32 | 14 | 33 | 1016 | 10 | N 3.7 | |
| Oggi h: 14:00 | Sereno | 31 | 13 | 33 | 1016 | 10 | N 3.7 | |
| Oggi h: 13:30 | Poco Nuvoloso | 30 | 13 | 35 | 1017 | 10 | E/NE 9.3 | |
| Oggi h: 13:00 | Sereno | 30 | 13 | 35 | 1017 | 10 | N 3.7 | |
| Oggi h: 12:30 | Sereno | 28 | 14 | 42 | 1017 | 10 | N 5.5 | |
| Oggi h: 12:00 | Sereno | 27 | 13 | 42 | 1018 | 10 | E/NE 7.4 | |
| Oggi h: 11:30 | Sereno | 27 | 14 | 44 | 1018 | 10 | N 5.5 | |
| Oggi h: 11:00 | Sereno | 26 | 13 | 44 | 1018 | 10 | N/NO 9.3 | |
| Oggi h: 10:30 | Sereno | 25 | 14 | 50 | 1018 | 10 | N 5.5 | |
| Oggi h: 10:00 | Sereno | 24 | 14 | 53 | 1018 | 10 | N 3.7 | |
| Oggi h: 09:30 | Sereno | 24 | 15 | 57 | 1018 | 10 | N 5.5 | |
| Oggi h: 09:00 | Sereno | 24 | 14 | 53 | 1019 | 10 | N 3.7 | |
| Oggi h: 08:30 | Sereno | 21 | 12 | 56 | 1019 | 10 | N 0 | |
| Oggi h: 08:00 | Sereno | 19 | 13 | 68 | 1019 | 10 | N 0 | |
| Oggi h: 07:30 | Sereno | 18 | 12 | 67 | 1018 | 10 | N 0 | |
| Oggi h: 07:00 | Sereno | 17 | 11 | 67 | 1018 | 10 | N 5.5 | |
| Oggi h: 06:30 | Sereno | 17 | 11 | 67 | 1018 | 10 | N 0 | |
| Oggi h: 06:00 | Poco Nuvoloso | 18 | 12 | 67 | 1018 | 10 | N 0 | |
| Oggi h: 05:30 | Nuvoloso | 18 | 11 | 63 | 1018 | 10 | N 0 | |
| Oggi h: 05:00 | Poco Nuvoloso | 20 | 11 | 56 | 1018 | 10 | N 0 | |
| Oggi h: 04:30 | Poco Nuvoloso | 20 | 12 | 59 | 1018 | 10 | N 3.7 | |
| Oggi h: 04:00 | Molto Nuvoloso | 21 | 12 | 56 | 1018 | 10 | E/SE 7.4 | |
| Oggi h: 03:30 | Molto Nuvoloso | 21 | 12 | 56 | 1018 | 10 | SE 13 | |
| Oggi h: 03:00 | Molto Nuvoloso | 21 | 12 | 56 | 1018 | 10 | SE 11.1 | |
| Oggi h: 02:30 | Sereno | 21 | 12 | 56 | 1018 | 10 | SE 11.1 | |
| Oggi h: 02:00 | Sereno | 22 | 11 | 49 | 1018 | 10 | E/SE 11.1 | |
| Oggi h: 01:30 | Sereno | 22 | 12 | 53 | 1018 | 10 | E/SE 13 | |
| Oggi h: 01:00 | Sereno | 23 | 12 | 49 | 1018 | 10 | E/SE 16.7 | |
| Oggi h: 00:30 | Sereno | 23 | 12 | 49 | 1017 | 10 | E/SE 16.7 | |
| Oggi h: 00:00 | Poco Nuvoloso | 24 | 12 | 47 | 1017 | 10 | E/SE 14.8 | |
| Ieri h: 23:30 | Sereno | 24 | 12 | 47 | 1017 | 10 | E/SE 14.8 | |
| Ieri h: 23:00 | Sereno | 26 | 13 | 44 | 1017 | 10 | E 18.5 | |
| Ieri h: 22:30 | Sereno | 27 | 13 | 42 | 1017 | 10 | S/SE 9.3 | |
| Ieri h: 22:00 | Sereno | 27 | 13 | 42 | 1016 | 10 | S/SE 11.1 | |
| Ieri h: 21:30 | Poco Nuvoloso | 26 | 14 | 47 | 1016 | 10 | SE 11.1 | |
| Ieri h: 21:00 | Poco Nuvoloso | 27 | 13 | 42 | 1016 | 10 | SE 9.3 | |
| Ieri h: 20:30 | Poco Nuvoloso | 27 | 13 | 42 | 1015 | 10 | E/SE 11.1 | |
| Ieri h: 20:00 | Poco Nuvoloso | 29 | 13 | 37 | 1015 | 10 | E 11.1 | |



